createdAt,value
2022-10-28T00:04:56.869Z,11.75
2022-10-28T00:09:59.705Z,11.71
2022-10-28T00:15:03.816Z,11.65
2022-10-28T00:20:07.258Z,11.59
2022-10-28T00:25:10.793Z,11.57
2022-10-28T00:30:13.736Z,11.59
2022-10-28T00:35:16.686Z,11.64
2022-10-28T00:40:19.511Z,11.62
2022-10-28T00:45:22.710Z,11.56
2022-10-28T00:50:45.294Z,11.48
2022-10-28T00:55:49.710Z,11.40
2022-10-28T01:00:53.197Z,11.29
2022-10-28T01:05:57.623Z,11.22
2022-10-28T01:11:13.615Z,11.15
2022-10-28T01:16:30.221Z,11.12
2022-10-28T01:21:35.865Z,11.12
2022-10-28T01:27:01.061Z,11.13
2022-10-28T01:32:48.639Z,11.08
2022-10-28T01:37:57.170Z,10.98
2022-10-28T01:43:22.351Z,10.89
2022-10-28T01:48:48.077Z,10.85
2022-10-28T01:53:55.415Z,10.77
2022-10-28T01:59:01.932Z,10.70
2022-10-28T02:04:04.899Z,10.66
2022-10-28T02:09:19.639Z,10.68
2022-10-28T02:14:46.679Z,10.70
2022-10-28T02:20:00.622Z,10.68
2022-10-28T02:25:17.001Z,10.69
2022-10-28T02:30:33.494Z,10.62
2022-10-28T02:35:45.425Z,10.53
2022-10-28T02:46:04.070Z,10.45
2022-10-28T02:51:12.148Z,10.38
2022-10-28T02:56:17.443Z,10.29
2022-10-28T03:01:20.986Z,10.25
2022-10-28T03:11:28.852Z,10.28
2022-10-28T03:16:31.911Z,10.33
2022-10-28T03:21:34.941Z,10.31
2022-10-28T03:26:37.789Z,10.27
2022-10-28T03:31:40.792Z,10.23
2022-10-28T03:36:43.886Z,10.25
2022-10-28T03:41:46.820Z,10.30
2022-10-28T03:46:49.668Z,10.27
2022-10-28T03:51:52.612Z,10.20
2022-10-28T03:56:55.457Z,10.14
2022-10-28T04:01:58.689Z,10.18
2022-10-28T04:07:01.789Z,10.26
2022-10-28T04:17:14.050Z,10.20
2022-10-28T04:22:16.921Z,10.15
2022-10-28T04:27:19.739Z,10.13
2022-10-28T04:32:23.743Z,10.09
2022-10-28T04:37:27.130Z,10.03
2022-10-28T04:42:31.802Z,10.02
2022-10-28T04:47:35.427Z,10.00
2022-10-28T04:52:39.434Z,9.95
2022-10-28T04:57:42.504Z,9.93
2022-10-28T05:02:46.196Z,9.90
2022-10-28T05:07:50.271Z,9.96
2022-10-28T05:12:54.319Z,9.98
2022-10-28T05:17:58.274Z,9.93
2022-10-28T05:23:01.979Z,9.89
2022-10-28T05:28:05.975Z,9.85
2022-10-28T05:33:11.647Z,9.75
2022-10-28T05:38:14.880Z,9.67
2022-10-28T05:43:18.530Z,9.60
2022-10-28T05:48:22.144Z,9.57
2022-10-28T05:53:25.413Z,9.63
2022-10-28T05:58:28.739Z,9.74
2022-10-28T06:03:33.059Z,9.78
2022-10-28T06:08:36.136Z,9.84
2022-10-28T06:13:39.481Z,9.94
2022-10-28T06:18:44.213Z,10.00
2022-10-28T06:23:47.742Z,10.02
2022-10-28T06:28:51.247Z,10.02
2022-10-28T06:33:56.481Z,10.03
2022-10-28T06:39:00.496Z,10.06
2022-10-28T06:44:05.092Z,10.15
2022-10-28T06:49:10.419Z,10.28
2022-10-28T06:54:14.280Z,10.40
2022-10-28T06:59:18.406Z,10.49
2022-10-28T07:04:22.556Z,10.60
2022-10-28T07:09:26.615Z,10.69
2022-10-28T07:14:31.254Z,10.77
2022-10-28T07:19:35.025Z,10.90
2022-10-28T07:24:39.502Z,11.05
2022-10-28T07:29:43.179Z,11.29
2022-10-28T07:34:48.172Z,11.59
2022-10-28T07:39:51.947Z,11.88
2022-10-28T07:44:56.964Z,12.20
2022-10-28T07:49:59.868Z,12.50
2022-10-28T07:55:08.630Z,12.77
2022-10-28T08:00:14.877Z,12.99
2022-10-28T08:05:19.902Z,13.18
2022-10-28T08:10:23.811Z,13.44
2022-10-28T08:15:29.965Z,13.68
2022-10-28T08:20:33.553Z,13.88
2022-10-28T08:25:37.752Z,14.07
2022-10-28T08:30:56.665Z,14.21
2022-10-28T08:36:00.911Z,14.42
2022-10-28T08:41:15.398Z,14.67
2022-10-28T08:46:33.420Z,14.89
2022-10-28T08:51:54.185Z,15.07
2022-10-28T08:57:01.743Z,15.26
2022-10-28T09:02:26.327Z,15.43
2022-10-28T09:07:29.389Z,15.59
2022-10-28T09:12:50.720Z,15.71
2022-10-28T09:17:58.919Z,15.80
2022-10-28T09:23:19.265Z,15.91
2022-10-28T09:28:28.634Z,16.05
2022-10-28T09:33:35.580Z,16.26
2022-10-28T09:38:39.991Z,16.46
2022-10-28T09:43:50.623Z,16.65
2022-10-28T09:48:58.584Z,16.81
2022-10-28T09:54:02.913Z,16.97
2022-10-28T09:59:07.292Z,17.10
2022-10-28T10:04:22.630Z,17.26
2022-10-28T10:09:33.021Z,17.38
2022-10-28T10:14:49.349Z,17.48
2022-10-28T10:20:01.610Z,17.63
2022-10-28T10:25:31.220Z,17.79
2022-10-28T10:30:39.270Z,17.95
2022-10-28T10:35:43.239Z,18.13
2022-10-28T10:40:51.449Z,18.30
2022-10-28T10:46:03.919Z,18.46
2022-10-28T10:51:23.595Z,18.59
2022-10-28T10:56:30.465Z,18.67
2022-10-28T11:01:39.297Z,18.75
2022-10-28T11:06:49.977Z,18.85
2022-10-28T11:11:57.369Z,18.96
2022-10-28T11:17:02.938Z,19.04
2022-10-28T11:22:26.477Z,19.09
2022-10-28T11:27:41.884Z,19.14
2022-10-28T11:33:24.670Z,19.17
2022-10-28T11:38:48.194Z,19.23
2022-10-28T11:44:00.892Z,19.29
2022-10-28T11:49:45.952Z,19.41
2022-10-28T11:54:55.621Z,19.62
2022-10-28T12:00:47.066Z,19.77
2022-10-28T12:06:23.343Z,19.94
2022-10-28T12:11:36.757Z,20.10
2022-10-28T12:16:54.534Z,20.25
2022-10-28T12:22:34.358Z,20.34
2022-10-28T12:27:43.873Z,20.37
2022-10-28T12:32:52.692Z,20.39
2022-10-28T12:38:15.997Z,20.49
2022-10-28T12:43:29.668Z,20.58
2022-10-28T12:48:46.617Z,20.65
2022-10-28T12:53:56.462Z,20.71
2022-10-28T12:59:24.377Z,20.72
2022-10-28T13:04:28.800Z,20.70
2022-10-28T13:10:11.473Z,20.71
2022-10-28T13:15:26.129Z,20.88
2022-10-28T13:21:14.922Z,21.07
2022-10-28T13:26:18.405Z,21.13
2022-10-28T13:31:21.734Z,21.10
2022-10-28T13:36:33.006Z,21.05
2022-10-28T13:41:44.786Z,20.98
2022-10-28T13:47:00.714Z,20.94
2022-10-28T13:52:11.421Z,20.90
2022-10-28T13:57:21.171Z,20.86
2022-10-28T14:02:36.142Z,20.84
2022-10-28T14:08:00.192Z,20.79
2022-10-28T14:13:22.084Z,20.73
2022-10-28T14:31:14.883Z,20.63
2022-10-28T14:36:18.673Z,20.60
2022-10-28T14:41:59.661Z,20.57
2022-10-28T14:47:27.627Z,20.53
2022-10-28T14:52:36.750Z,20.49
2022-10-28T14:57:40.451Z,20.46
2022-10-28T15:02:46.540Z,20.43
2022-10-28T15:07:50.641Z,20.40
2022-10-28T15:12:56.669Z,20.36
2022-10-28T15:18:03.125Z,20.31
2022-10-28T15:23:14.378Z,20.26
2022-10-28T15:28:17.556Z,20.23
2022-10-28T15:33:28.681Z,20.20
2022-10-28T15:38:45.904Z,20.13
2022-10-28T15:44:22.755Z,19.99
2022-10-28T15:49:41.065Z,19.87
2022-10-28T15:54:58.648Z,19.72
2022-10-28T16:00:24.130Z,19.55
2022-10-28T16:05:33.413Z,19.43
2022-10-28T16:10:49.149Z,19.39
2022-10-28T16:16:13.520Z,19.33
2022-10-28T16:21:23.148Z,19.30
2022-10-28T16:26:30.609Z,19.28
2022-10-28T16:31:42.531Z,19.16
2022-10-28T16:36:45.882Z,18.96
2022-10-28T16:41:50.162Z,18.82
2022-10-28T16:46:53.670Z,18.81
2022-10-28T16:51:59.610Z,18.89
2022-10-28T16:57:14.198Z,18.98
2022-10-28T17:02:36.498Z,18.96
2022-10-28T17:07:43.042Z,18.97
2022-10-28T17:12:50.973Z,18.93
2022-10-28T17:17:54.584Z,18.90
2022-10-28T17:23:23.239Z,18.84
2022-10-28T17:28:40.747Z,18.79
2022-10-28T17:34:05.035Z,18.72
2022-10-28T17:39:21.921Z,18.62
2022-10-28T17:44:28.712Z,18.49
2022-10-28T17:49:34.916Z,18.37
2022-10-28T17:54:38.603Z,18.35
2022-10-28T17:59:42.299Z,18.36
2022-10-28T18:04:45.204Z,18.38
2022-10-28T18:09:48.745Z,18.39
2022-10-28T18:14:52.230Z,18.34
2022-10-28T18:19:58.423Z,18.22
2022-10-28T18:25:05.632Z,18.07
2022-10-28T18:30:10.834Z,17.98
2022-10-28T18:35:14.504Z,17.87
2022-10-28T18:40:18.407Z,17.84
2022-10-28T18:45:23.026Z,17.84
2022-10-28T18:50:26.740Z,17.87
2022-10-28T18:55:30.429Z,17.86
2022-10-28T19:00:35.287Z,17.77
2022-10-28T19:05:39.248Z,17.70
2022-10-28T19:10:43.583Z,17.61
2022-10-28T19:15:47.796Z,17.49
2022-10-28T19:20:54.807Z,17.40
2022-10-28T19:26:00.276Z,17.38
2022-10-28T19:31:05.854Z,17.37
2022-10-28T19:36:24.131Z,17.36
2022-10-28T19:41:30.300Z,17.45
2022-10-28T19:46:35.566Z,17.42
2022-10-28T19:51:40.793Z,17.31
2022-10-28T19:56:45.540Z,17.18
2022-10-28T20:01:50.818Z,17.08
2022-10-28T20:06:55.013Z,16.93
2022-10-28T20:11:58.614Z,16.89
2022-10-28T20:17:06.407Z,16.90
2022-10-28T20:22:12.529Z,16.90
2022-10-28T20:27:15.556Z,16.89
2022-10-28T20:32:23.282Z,16.84
2022-10-28T20:37:26.242Z,16.75
2022-10-28T20:42:30.284Z,16.64
2022-10-28T20:47:34.102Z,16.50
2022-10-28T20:52:39.720Z,16.40
2022-10-28T20:57:43.933Z,16.37
2022-10-28T21:02:47.953Z,16.34
2022-10-28T21:07:52.547Z,16.30
2022-10-28T21:12:56.308Z,16.23
2022-10-28T21:18:00.626Z,16.12
2022-10-28T21:23:06.888Z,16.00
2022-10-28T21:28:10.195Z,15.95
2022-10-28T21:33:14.504Z,15.94
2022-10-28T21:38:18.193Z,15.92
2022-10-28T21:43:22.195Z,15.87
2022-10-28T21:48:28.748Z,15.79
2022-10-28T21:53:34.273Z,15.71
2022-10-28T21:58:39.007Z,15.65
2022-10-28T22:03:42.512Z,15.61
2022-10-28T22:08:47.909Z,15.57
2022-10-28T22:14:04.204Z,15.52
2022-10-28T22:19:11.314Z,15.42
2022-10-28T22:24:16.057Z,15.33
2022-10-28T22:29:19.752Z,15.21
2022-10-28T22:34:23.559Z,15.11
2022-10-28T22:39:26.613Z,15.14
2022-10-28T22:44:30.523Z,15.18
2022-10-28T22:49:35.323Z,15.14
2022-10-28T22:54:39.180Z,15.10
2022-10-28T22:59:42.554Z,15.05
2022-10-28T23:04:45.862Z,15.01
2022-10-28T23:09:49.016Z,14.95
2022-10-28T23:14:52.563Z,14.89
2022-10-28T23:19:55.619Z,14.91
2022-10-28T23:24:59.238Z,14.93
2022-10-28T23:30:02.696Z,14.97
2022-10-28T23:35:08.536Z,14.94
2022-10-28T23:40:13.063Z,14.88
2022-10-28T23:45:16.795Z,14.80
2022-10-28T23:50:19.781Z,14.79
2022-10-28T23:55:23.065Z,14.82
